sensor_id;sensor_type;location;lat;lon;timestamp;pressure;altitude;pressure_sealevel;temperature;humidity
46836;BME280;32573;51.290;6.926;2023-05-22T00:00:10;99971.53;;;18.97;100.00
46836;BME280;32573;51.290;6.926;2023-05-22T00:02:40;99960.94;;;18.94;100.00
46836;BME280;32573;51.290;6.926;2023-05-22T00:05:12;99966.28;;;18.91;100.00
46836;BME280;32573;51.290;6.926;2023-05-22T00:07:41;99960.09;;;18.90;100.00
46836;BME280;32573;51.290;6.926;2023-05-22T00:10:10;99956.56;;;18.87;100.00
46836;BME280;32573;51.290;6.926;2023-05-22T00:12:39;99957.50;;;18.84;100.00
46836;BME280;32573;51.290;6.926;2023-05-22T00:15:08;99955.75;;;18.82;100.00
46836;BME280;32573;51.290;6.926;2023-05-22T00:17:37;99955.78;;;18.79;100.00
46836;BME280;32573;51.290;6.926;2023-05-22T00:20:07;99955.81;;;18.75;100.00
46836;BME280;32573;51.290;6.926;2023-05-22T00:22:39;99958.47;;;18.72;100.00
46836;BME280;32573;51.290;6.926;2023-05-22T00:25:09;99947.00;;;18.70;100.00
46836;BME280;32573;51.290;6.926;2023-05-22T00:27:38;99949.63;;;18.69;100.00
46836;BME280;32573;51.290;6.926;2023-05-22T00:30:07;99946.16;;;18.65;100.00
46836;BME280;32573;51.290;6.926;2023-05-22T00:32:36;99945.28;;;18.65;100.00
46836;BME280;32573;51.290;6.926;2023-05-22T00:35:06;99939.97;;;18.63;100.00
46836;BME280;32573;51.290;6.926;2023-05-22T00:37:35;99936.44;;;18.61;100.00
46836;BME280;32573;51.290;6.926;2023-05-22T00:40:06;99941.78;;;18.58;100.00
46836;BME280;32573;51.290;6.926;2023-05-22T00:42:35;99938.25;;;18.56;100.00
46836;BME280;32573;51.290;6.926;2023-05-22T00:45:04;99941.81;;;18.53;100.00
46836;BME280;32573;51.290;6.926;2023-05-22T00:47:34;99940.06;;;18.51;100.00
46836;BME280;32573;51.290;6.926;2023-05-22T00:50:03;99941.84;;;18.49;100.00
46836;BME280;32573;51.290;6.926;2023-05-22T00:52:34;99943.66;;;18.45;100.00
46836;BME280;32573;51.290;6.926;2023-05-22T00:55:08;99948.09;;;18.42;100.00
46836;BME280;32573;51.290;6.926;2023-05-22T00:57:38;99955.19;;;18.38;100.00
46836;BME280;32573;51.290;6.926;2023-05-22T01:00:08;99958.75;;;18.36;100.00
46836;BME280;32573;51.290;6.926;2023-05-22T01:02:39;99957.00;;;18.33;100.00
46836;BME280;32573;51.290;6.926;2023-05-22T01:05:10;99958.78;;;18.29;100.00
46836;BME280;32573;51.290;6.926;2023-05-22T01:07:39;99964.97;;;18.27;100.00
46836;BME280;32573;51.290;6.926;2023-05-22T01:10:10;99957.94;;;18.24;100.00
46836;BME280;32573;51.290;6.926;2023-05-22T01:12:46;99959.75;;;18.22;100.00
46836;BME280;32573;51.290;6.926;2023-05-22T01:15:23;99966.81;;;18.20;100.00
46836;BME280;32573;51.290;6.926;2023-05-22T01:18:04;99965.03;;;18.19;100.00
46836;BME280;32573;51.290;6.926;2023-05-22T01:20:39;99957.13;;;18.16;100.00
46836;BME280;32573;51.290;6.926;2023-05-22T01:23:48;99958.00;;;18.14;100.00
46836;BME280;32573;51.290;6.926;2023-05-22T01:29:56;99958.06;;;18.06;100.00
46836;BME280;32573;51.290;6.926;2023-05-22T01:32:31;99949.25;;;18.01;100.00
46836;BME280;32573;51.290;6.926;2023-05-22T01:35:06;99945.75;;;17.99;100.00
46836;BME280;32573;51.290;6.926;2023-05-22T01:37:38;99949.28;;;17.96;100.00
46836;BME280;32573;51.290;6.926;2023-05-22T01:40:09;99947.53;;;17.94;100.00
46836;BME280;32573;51.290;6.926;2023-05-22T01:42:39;99948.44;;;17.89;100.00
46836;BME280;32573;51.290;6.926;2023-05-22T01:45:09;99944.94;;;17.87;100.00
46836;BME280;32573;51.290;6.926;2023-05-22T01:47:39;99944.06;;;17.84;100.00
46836;BME280;32573;51.290;6.926;2023-05-22T01:50:09;99942.31;;;17.81;100.00
46836;BME280;32573;51.290;6.926;2023-05-22T01:52:44;99938.78;;;17.76;100.00
46836;BME280;32573;51.290;6.926;2023-05-22T01:55:18;99943.22;;;17.73;100.00
46836;BME280;32573;51.290;6.926;2023-05-22T01:57:54;99940.56;;;17.69;100.00
46836;BME280;32573;51.290;6.926;2023-05-22T02:00:25;99930.03;;;17.65;100.00
46836;BME280;32573;51.290;6.926;2023-05-22T02:03:02;99921.22;;;17.60;100.00
46836;BME280;32573;51.290;6.926;2023-05-22T02:05:37;99928.28;;;17.58;100.00
46836;BME280;32573;51.290;6.926;2023-05-22T02:08:06;99926.53;;;17.54;100.00
46836;BME280;32573;51.290;6.926;2023-05-22T02:10:39;99921.25;;;17.51;100.00
46836;BME280;32573;51.290;6.926;2023-05-22T02:13:09;99921.28;;;17.48;100.00
46836;BME280;32573;51.290;6.926;2023-05-22T02:15:39;99916.88;;;17.45;100.00
46836;BME280;32573;51.290;6.926;2023-05-22T02:18:10;99918.63;;;17.43;100.00
46836;BME280;32573;51.290;6.926;2023-05-22T02:20:41;99918.66;;;17.40;100.00
46836;BME280;32573;51.290;6.926;2023-05-22T02:23:10;99923.94;;;17.38;100.00
46836;BME280;32573;51.290;6.926;2023-05-22T02:25:39;99918.66;;;17.35;100.00
46836;BME280;32573;51.290;6.926;2023-05-22T02:28:10;99913.38;;;17.32;100.00
46836;BME280;32573;51.290;6.926;2023-05-22T02:30:39;99914.25;;;17.31;100.00
46836;BME280;32573;51.290;6.926;2023-05-22T02:33:07;99914.25;;;17.30;100.00
46836;BME280;32573;51.290;6.926;2023-05-22T02:35:39;99915.16;;;17.29;100.00
46836;BME280;32573;51.290;6.926;2023-05-22T02:38:07;99912.50;;;17.27;100.00
46836;BME280;32573;51.290;6.926;2023-05-22T02:40:36;99912.50;;;17.27;100.00
46836;BME280;32573;51.290;6.926;2023-05-22T02:43:05;99909.88;;;17.25;100.00
46836;BME280;32573;51.290;6.926;2023-05-22T02:45:33;99904.59;;;17.24;100.00
46836;BME280;32573;51.290;6.926;2023-05-22T02:48:02;99909.88;;;17.24;100.00
46836;BME280;32573;51.290;6.926;2023-05-22T02:50:32;99909.88;;;17.24;100.00
46836;BME280;32573;51.290;6.926;2023-05-22T02:53:02;99904.59;;;17.24;100.00
46836;BME280;32573;51.290;6.926;2023-05-22T02:55:30;99901.94;;;17.24;100.00
46836;BME280;32573;51.290;6.926;2023-05-22T02:57:59;99896.66;;;17.24;100.00
46836;BME280;32573;51.290;6.926;2023-05-22T03:00:28;99894.88;;;17.26;100.00
46836;BME280;32573;51.290;6.926;2023-05-22T03:02:56;99894.00;;;17.25;100.00
46836;BME280;32573;51.290;6.926;2023-05-22T03:05:25;99893.13;;;17.25;100.00
46836;BME280;32573;51.290;6.926;2023-05-22T03:07:54;99889.59;;;17.24;100.00
46836;BME280;32573;51.290;6.926;2023-05-22T03:10:24;99883.41;;;17.24;100.00
46836;BME280;32573;51.290;6.926;2023-05-22T03:12:52;99890.50;;;17.25;100.00
46836;BME280;32573;51.290;6.926;2023-05-22T03:15:21;99896.66;;;17.24;100.00
46836;BME280;32573;51.290;6.926;2023-05-22T03:17:55;99898.41;;;17.22;100.00
46836;BME280;32573;51.290;6.926;2023-05-22T03:20:24;99901.97;;;17.21;100.00
46836;BME280;32573;51.290;6.926;2023-05-22T03:22:53;99894.91;;;17.20;100.00
46836;BME280;32573;51.290;6.926;2023-05-22T03:25:21;99898.44;;;17.19;100.00
46836;BME280;32573;51.290;6.926;2023-05-22T03:27:51;99905.50;;;17.18;100.00
46836;BME280;32573;51.290;6.926;2023-05-22T03:30:20;99909.03;;;17.17;100.00
46836;BME280;32573;51.290;6.926;2023-05-22T03:33:01;99909.91;;;17.16;100.00
46836;BME280;32573;51.290;6.926;2023-05-22T03:35:30;99907.28;;;17.15;100.00
46836;BME280;32573;51.290;6.926;2023-05-22T03:37:58;99903.75;;;17.13;100.00
46836;BME280;32573;51.290;6.926;2023-05-22T03:40:27;99909.91;;;17.12;100.00
46836;BME280;32573;51.290;6.926;2023-05-22T03:42:57;99909.03;;;17.10;100.00
46836;BME280;32573;51.290;6.926;2023-05-22T03:45:26;99905.53;;;17.08;100.00
46836;BME280;32573;51.290;6.926;2023-05-22T03:47:55;99917.88;;;17.06;100.00
46836;BME280;32573;51.290;6.926;2023-05-22T03:50:23;99905.53;;;17.03;100.00
46836;BME280;32573;51.290;6.926;2023-05-22T03:52:52;99907.28;;;16.99;100.00
46836;BME280;32573;51.290;6.926;2023-05-22T03:55:20;99907.31;;;16.96;100.00
46836;BME280;32573;51.290;6.926;2023-05-22T03:57:49;99909.97;;;16.95;100.00
46836;BME280;32573;51.290;6.926;2023-05-22T04:00:19;99911.72;;;16.91;100.00
46836;BME280;32573;51.290;6.926;2023-05-22T04:02:48;99909.09;;;16.88;100.00
46836;BME280;32573;51.290;6.926;2023-05-22T04:05:17;99918.78;;;16.86;100.00
46836;BME280;32573;51.290;6.926;2023-05-22T04:07:46;99917.91;;;16.84;100.00
46836;BME280;32573;51.290;6.926;2023-05-22T04:10:14;99919.66;;;16.82;100.00
46836;BME280;32573;51.290;6.926;2023-05-22T04:12:43;99924.97;;;16.82;100.00
46836;BME280;32573;51.290;6.926;2023-05-22T04:15:12;99917.91;;;16.79;100.00
46836;BME280;32573;51.290;6.926;2023-05-22T04:17:42;99919.66;;;16.77;100.00
46836;BME280;32573;51.290;6.926;2023-05-22T04:20:12;99918.75;;;16.77;100.00
46836;BME280;32573;51.290;6.926;2023-05-22T04:22:40;99920.56;;;16.75;100.00
46836;BME280;32573;51.290;6.926;2023-05-22T04:25:09;99921.41;;;16.74;100.00
46836;BME280;32573;51.290;6.926;2023-05-22T04:27:38;99917.91;;;16.75;100.00
46836;BME280;32573;51.290;6.926;2023-05-22T04:30:07;99917.91;;;16.75;100.00
46836;BME280;32573;51.290;6.926;2023-05-22T04:32:38;99925.84;;;16.75;100.00
46836;BME280;32573;51.290;6.926;2023-05-22T04:35:08;99918.78;;;16.75;100.00
46836;BME280;32573;51.290;6.926;2023-05-22T04:37:38;99923.19;;;16.75;100.00
46836;BME280;32573;51.290;6.926;2023-05-22T04:40:08;99923.19;;;16.75;100.00
46836;BME280;32573;51.290;6.926;2023-05-22T04:42:38;99932.88;;;16.74;100.00
46836;BME280;32573;51.290;6.926;2023-05-22T04:45:07;99933.78;;;16.75;100.00
46836;BME280;32573;51.290;6.926;2023-05-22T04:47:36;99925.84;;;16.75;100.00
46836;BME280;32573;51.290;6.926;2023-05-22T04:50:09;99936.41;;;16.75;100.00
46836;BME280;32573;51.290;6.926;2023-05-22T04:52:41;99932.88;;;16.74;100.00
46836;BME280;32573;51.290;6.926;2023-05-22T04:55:11;99923.19;;;16.75;100.00
46836;BME280;32573;51.290;6.926;2023-05-22T04:57:43;99924.94;;;16.76;100.00
46836;BME280;32573;51.290;6.926;2023-05-22T05:00:14;99924.06;;;16.77;100.00
46836;BME280;32573;51.290;6.926;2023-05-22T05:02:44;99917.03;;;16.77;100.00
46836;BME280;32573;51.290;6.926;2023-05-22T05:05:15;99924.09;;;16.80;100.00
46836;BME280;32573;51.290;6.926;2023-05-22T05:07:47;99932.03;;;16.80;100.00
46836;BME280;32573;51.290;6.926;2023-05-22T05:10:18;99926.75;;;16.83;100.00
46836;BME280;32573;51.290;6.926;2023-05-22T05:12:47;99933.78;;;16.84;100.00
46836;BME280;32573;51.290;6.926;2023-05-22T05:15:17;99941.72;;;16.86;100.00
46836;BME280;32573;51.290;6.926;2023-05-22T05:17:48;99932.88;;;16.87;100.00
46836;BME280;32573;51.290;6.926;2023-05-22T05:20:20;99935.53;;;16.88;100.00
46836;BME280;32573;51.290;6.926;2023-05-22T05:22:49;99933.78;;;16.90;100.00
46836;BME280;32573;51.290;6.926;2023-05-22T05:25:20;99934.66;;;16.91;100.00
46836;BME280;32573;51.290;6.926;2023-05-22T05:27:49;99936.41;;;16.92;100.00
46836;BME280;32573;51.290;6.926;2023-05-22T05:30:20;99937.28;;;16.92;100.00
46836;BME280;32573;51.290;6.926;2023-05-22T05:33:07;99944.34;;;16.93;100.00
46836;BME280;32573;51.290;6.926;2023-05-22T05:35:57;99934.66;;;16.95;100.00
46836;BME280;32573;51.290;6.926;2023-05-22T05:38:27;99939.91;;;16.97;100.00
46836;BME280;32573;51.290;6.926;2023-05-22T05:40:57;99945.22;;;16.98;100.00
46836;BME280;32573;51.290;6.926;2023-05-22T05:43:27;99950.50;;;17.01;100.00
46836;BME280;32573;51.290;6.926;2023-05-22T05:46:02;99943.44;;;17.02;100.00
46836;BME280;32573;51.290;6.926;2023-05-22T05:48:32;99946.97;;;17.02;100.00
46836;BME280;32573;51.290;6.926;2023-05-22T05:51:02;99949.63;;;17.06;100.00
46836;BME280;32573;51.290;6.926;2023-05-22T05:53:36;99953.16;;;17.08;100.00
46836;BME280;32573;51.290;6.926;2023-05-22T05:56:07;99950.47;;;17.11;100.00
46836;BME280;32573;51.290;6.926;2023-05-22T05:58:38;99952.25;;;17.15;100.00
46836;BME280;32573;51.290;6.926;2023-05-22T06:01:42;99953.09;;;17.17;100.00
46836;BME280;32573;51.290;6.926;2023-05-22T06:04:19;99958.41;;;17.20;100.00
46836;BME280;32573;51.290;6.926;2023-05-22T06:06:51;99952.22;;;17.21;100.00
46836;BME280;32573;51.290;6.926;2023-05-22T06:09:34;99958.41;;;17.23;100.00
46836;BME280;32573;51.290;6.926;2023-05-22T06:12:09;99966.31;;;17.26;100.00
46836;BME280;32573;51.290;6.926;2023-05-22T06:14:44;99962.78;;;17.27;100.00
46836;BME280;32573;51.290;6.926;2023-05-22T06:17:14;99962.78;;;17.29;100.00
46836;BME280;32573;51.290;6.926;2023-05-22T06:19:44;99961.88;;;17.30;100.00
46836;BME280;32573;51.290;6.926;2023-05-22T06:22:16;99965.41;;;17.33;100.00
46836;BME280;32573;51.290;6.926;2023-05-22T06:24:48;99957.47;;;17.38;100.00
46836;BME280;32573;51.290;6.926;2023-05-22T06:27:20;99967.16;;;17.43;100.00
46836;BME280;32573;51.290;6.926;2023-05-22T06:29:50;99966.25;;;17.48;100.00
46836;BME280;32573;51.290;6.926;2023-05-22T06:32:19;99967.13;;;17.53;100.00
46836;BME280;32573;51.290;6.926;2023-05-22T06:34:51;99974.16;;;17.57;100.00
46836;BME280;32573;51.290;6.926;2023-05-22T06:37:22;99971.50;;;17.60;100.00
46836;BME280;32573;51.290;6.926;2023-05-22T06:39:52;99972.38;;;17.63;100.00
46836;BME280;32573;51.290;6.926;2023-05-22T06:42:27;99973.22;;;17.67;100.00
46836;BME280;32573;51.290;6.926;2023-05-22T06:45:15;99978.50;;;17.72;100.00
46836;BME280;32573;51.290;6.926;2023-05-22T06:48:08;99983.81;;;17.75;100.00
46836;BME280;32573;51.290;6.926;2023-05-22T06:50:49;99984.66;;;17.77;100.00
46836;BME280;32573;51.290;6.926;2023-05-22T06:53:20;99988.22;;;17.77;100.00
46836;BME280;32573;51.290;6.926;2023-05-22T06:55:50;99986.41;;;17.79;100.00
46836;BME280;32573;51.290;6.926;2023-05-22T06:58:30;99986.44;;;17.82;100.00
46836;BME280;32573;51.290;6.926;2023-05-22T07:00:59;99984.66;;;17.84;100.00
46836;BME280;32573;51.290;6.926;2023-05-22T07:03:35;99990.84;;;17.88;100.00
46836;BME280;32573;51.290;6.926;2023-05-22T07:06:31;99994.34;;;17.92;100.00
46836;BME280;32573;51.290;6.926;2023-05-22T07:09:07;99995.19;;;17.97;100.00
46836;BME280;32573;51.290;6.926;2023-05-22T07:11:38;99996.94;;;18.01;100.00
46836;BME280;32573;51.290;6.926;2023-05-22T07:14:09;100000.44;;;18.06;100.00
46836;BME280;32573;51.290;6.926;2023-05-22T07:16:41;100003.06;;;18.09;100.00
46836;BME280;32573;51.290;6.926;2023-05-22T07:19:11;100000.41;;;18.12;100.00
46836;BME280;32573;51.290;6.926;2023-05-22T07:21:42;99999.50;;;18.18;100.00
46836;BME280;32573;51.290;6.926;2023-05-22T07:24:17;100003.88;;;18.23;100.00
46836;BME280;32573;51.290;6.926;2023-05-22T07:26:46;100000.34;;;18.24;100.00
46836;BME280;32573;51.290;6.926;2023-05-22T07:29:16;100006.50;;;18.28;100.00
46836;BME280;32573;51.290;6.926;2023-05-22T07:31:54;100012.66;;;18.31;100.00
46836;BME280;32573;51.290;6.926;2023-05-22T07:34:25;100005.59;;;18.33;100.00
46836;BME280;32573;51.290;6.926;2023-05-22T07:37:06;100006.47;;;18.36;100.00
46836;BME280;32573;51.290;6.926;2023-05-22T07:39:39;100002.00;;;18.41;100.00
46836;BME280;32573;51.290;6.926;2023-05-22T07:42:09;100016.09;;;18.46;100.00
46836;BME280;32573;51.290;6.926;2023-05-22T07:44:46;100020.47;;;18.51;100.00
46836;BME280;32573;51.290;6.926;2023-05-22T07:47:17;100014.28;;;18.54;100.00
46836;BME280;32573;51.290;6.926;2023-05-22T07:49:47;100018.66;;;18.57;100.00
46836;BME280;32573;51.290;6.926;2023-05-22T07:52:16;100015.13;;;18.61;100.00
46836;BME280;32573;51.290;6.926;2023-05-22T07:54:46;100019.50;;;18.66;100.00
46836;BME280;32573;51.290;6.926;2023-05-22T07:57:16;100022.13;;;18.72;100.00
46836;BME280;32573;51.290;6.926;2023-05-22T07:59:44;100020.31;;;18.79;100.00
46836;BME280;32573;51.290;6.926;2023-05-22T08:02:13;100022.94;;;18.84;100.00
46836;BME280;32573;51.290;6.926;2023-05-22T08:04:42;100027.31;;;18.86;100.00
46836;BME280;32573;51.290;6.926;2023-05-22T08:07:11;100031.72;;;18.89;100.00
46836;BME280;32573;51.290;6.926;2023-05-22T08:09:40;100027.28;;;18.92;100.00
46836;BME280;32573;51.290;6.926;2023-05-22T08:12:13;100034.34;;;18.93;100.00
46836;BME280;32573;51.290;6.926;2023-05-22T08:14:42;100040.53;;;18.94;100.00
46836;BME280;32573;51.290;6.926;2023-05-22T08:17:10;100034.34;;;18.92;100.00
46836;BME280;32573;51.290;6.926;2023-05-22T08:19:39;100034.34;;;18.92;100.00
46836;BME280;32573;51.290;6.926;2023-05-22T08:22:08;100029.94;;;18.91;100.00
46836;BME280;32573;51.290;6.926;2023-05-22T08:24:37;100032.63;;;18.88;100.00
46836;BME280;32573;51.290;6.926;2023-05-22T08:27:06;100041.50;;;18.84;100.00
46836;BME280;32573;51.290;6.926;2023-05-22T08:29:36;100034.44;;;18.81;100.00
46836;BME280;32573;51.290;6.926;2023-05-22T08:32:05;100035.34;;;18.79;100.00
46836;BME280;32573;51.290;6.926;2023-05-22T08:34:34;100047.72;;;18.77;100.00
46836;BME280;32573;51.290;6.926;2023-05-22T08:37:03;100042.41;;;18.72;100.00
46836;BME280;32573;51.290;6.926;2023-05-22T08:39:32;100049.56;;;18.65;100.00
46836;BME280;32573;51.290;6.926;2023-05-22T08:42:00;100046.03;;;18.62;100.00
46836;BME280;32573;51.290;6.926;2023-05-22T08:44:30;100049.63;;;18.58;100.00
46836;BME280;32573;51.290;6.926;2023-05-22T08:47:00;100056.69;;;18.57;100.00
46836;BME280;32573;51.290;6.926;2023-05-22T08:49:31;100053.16;;;18.55;100.00
46836;BME280;32573;51.290;6.926;2023-05-22T08:52:06;100054.94;;;18.53;100.00
46836;BME280;32573;51.290;6.926;2023-05-22T08:54:40;100049.66;;;18.53;100.00
46836;BME280;32573;51.290;6.926;2023-05-22T08:57:09;100056.69;;;18.54;100.00
46836;BME280;32573;51.290;6.926;2023-05-22T08:59:38;100059.34;;;18.54;100.00
46836;BME280;32573;51.290;6.926;2023-05-22T09:02:12;100050.50;;;18.52;100.00
46836;BME280;32573;51.290;6.926;2023-05-22T09:04:40;100060.28;;;18.50;100.00
46836;BME280;32573;51.290;6.926;2023-05-22T09:07:09;100057.63;;;18.50;100.00
46836;BME280;32573;51.290;6.926;2023-05-22T09:09:40;100058.50;;;18.49;100.00
46836;BME280;32573;51.290;6.926;2023-05-22T09:12:10;100059.38;;;18.49;100.00
46836;BME280;32573;51.290;6.926;2023-05-22T09:14:40;100056.72;;;18.51;100.00
46836;BME280;32573;51.290;6.926;2023-05-22T09:17:13;100058.47;;;18.55;100.00
46836;BME280;32573;51.290;6.926;2023-05-22T09:19:43;100066.41;;;18.60;100.00
46836;BME280;32573;51.290;6.926;2023-05-22T09:22:13;100061.03;;;18.64;100.00
46836;BME280;32573;51.290;6.926;2023-05-22T09:24:44;100065.44;;;18.68;100.00
46836;BME280;32573;51.290;6.926;2023-05-22T09:27:13;100059.25;;;18.71;100.00
46836;BME280;32573;51.290;6.926;2023-05-22T09:29:49;100067.19;;;18.72;100.00
46836;BME280;32573;51.290;6.926;2023-05-22T09:32:19;100068.94;;;18.77;100.00
46836;BME280;32573;51.290;6.926;2023-05-22T09:34:48;100068.06;;;18.78;100.00
46836;BME280;32573;51.290;6.926;2023-05-22T09:37:17;100067.13;;;18.82;100.00
46836;BME280;32573;51.290;6.926;2023-05-22T09:39:46;100068.88;;;18.86;100.00
46836;BME280;32573;51.290;6.926;2023-05-22T09:42:17;100075.94;;;18.90;100.00
46836;BME280;32573;51.290;6.926;2023-05-22T09:44:47;100059.09;;;18.94;100.00
46836;BME280;32573;51.290;6.926;2023-05-22T09:47:16;100071.44;;;19.00;100.00
46836;BME280;32573;51.290;6.926;2023-05-22T09:49:46;100065.22;;;19.05;100.00
46836;BME280;32573;51.290;6.926;2023-05-22T09:52:16;100063.34;;;19.12;100.00
46836;BME280;32573;51.290;6.926;2023-05-22T09:54:49;100065.97;;;19.16;100.00
46836;BME280;32573;51.290;6.926;2023-05-22T09:57:24;100070.41;;;19.17;100.00
46836;BME280;32573;51.290;6.926;2023-05-22T09:59:54;100068.63;;;19.16;100.00
46836;BME280;32573;51.290;6.926;2023-05-22T10:02:26;100063.31;;;19.16;100.00
46836;BME280;32573;51.290;6.926;2023-05-22T10:04:58;100069.50;;;19.20;100.00
46836;BME280;32573;51.290;6.926;2023-05-22T10:07:31;100069.47;;;19.23;100.00
46836;BME280;32573;51.290;6.926;2023-05-22T10:10:04;100061.50;;;19.25;100.00
46836;BME280;32573;51.290;6.926;2023-05-22T10:12:40;100058.81;;;19.26;100.00
46836;BME280;32573;51.290;6.926;2023-05-22T10:15:11;100069.41;;;19.29;100.00
46836;BME280;32573;51.290;6.926;2023-05-22T10:17:41;100060.53;;;19.32;100.00
46836;BME280;32573;51.290;6.926;2023-05-22T10:20:13;100072.88;;;19.34;100.00
46836;BME280;32573;51.290;6.926;2023-05-22T10:22:45;100076.41;;;19.38;100.00
46836;BME280;32573;51.290;6.926;2023-05-22T10:25:17;100075.50;;;19.42;100.00
46836;BME280;32573;51.290;6.926;2023-05-22T10:27:46;100080.78;;;19.45;100.00
46836;BME280;32573;51.290;6.926;2023-05-22T10:30:25;100071.91;;;19.48;100.00
46836;BME280;32573;51.290;6.926;2023-05-22T10:33:22;100073.59;;;19.52;100.00
46836;BME280;32573;51.290;6.926;2023-05-22T10:36:00;100070.03;;;19.57;100.00
46836;BME280;32573;51.290;6.926;2023-05-22T10:38:43;100075.25;;;19.64;100.00
46836;BME280;32573;51.290;6.926;2023-05-22T10:41:15;100061.97;;;19.68;100.00
46836;BME280;32573;51.290;6.926;2023-05-22T10:43:47;100067.28;;;19.68;100.00
46836;BME280;32573;51.290;6.926;2023-05-22T10:46:17;100059.28;;;19.67;100.00
46836;BME280;32573;51.290;6.926;2023-05-22T10:48:48;100064.63;;;19.70;100.00
46836;BME280;32573;51.290;6.926;2023-05-22T10:51:20;100061.88;;;19.74;100.00
46836;BME280;32573;51.290;6.926;2023-05-22T10:53:57;100053.88;;;19.79;100.00
46836;BME280;32573;51.290;6.926;2023-05-22T10:56:31;100054.72;;;19.82;100.00
46836;BME280;32573;51.290;6.926;2023-05-22T10:59:01;100049.38;;;19.86;100.00
46836;BME280;32573;51.290;6.926;2023-05-22T11:01:35;100050.19;;;19.92;100.00
46836;BME280;32573;51.290;6.926;2023-05-22T11:04:16;100051.88;;;19.99;100.00
46836;BME280;32573;51.290;6.926;2023-05-22T11:07:03;100052.66;;;20.08;100.00
46836;BME280;32573;51.290;6.926;2023-05-22T11:09:39;100046.38;;;20.15;100.00
46836;BME280;32573;51.290;6.926;2023-05-22T11:12:17;100048.97;;;20.18;100.00
46836;BME280;32573;51.290;6.926;2023-05-22T11:14:49;100049.75;;;20.26;100.00
46836;BME280;32573;51.290;6.926;2023-05-22T11:17:23;100047.91;;;20.31;100.00
46836;BME280;32573;51.290;6.926;2023-05-22T11:19:58;100041.59;;;20.40;100.00
46836;BME280;32573;51.290;6.926;2023-05-22T11:22:34;100042.41;;;20.43;100.00
46836;BME280;32573;51.290;6.926;2023-05-22T11:25:06;100037.03;;;20.48;100.00
46836;BME280;32573;51.290;6.926;2023-05-22T11:27:37;100035.22;;;20.50;100.00
46836;BME280;32573;51.290;6.926;2023-05-22T11:30:09;100033.38;;;20.54;100.00
46836;BME280;32573;51.290;6.926;2023-05-22T11:32:40;100035.19;;;20.55;100.00
46836;BME280;32573;51.290;6.926;2023-05-22T11:35:13;100034.28;;;20.56;100.00
46836;BME280;32573;51.290;6.926;2023-05-22T11:37:46;100036.00;;;20.60;100.00
46836;BME280;32573;51.290;6.926;2023-05-22T11:40:17;100032.31;;;20.68;100.00
46836;BME280;32573;51.290;6.926;2023-05-22T11:42:47;100029.53;;;20.76;100.00
46836;BME280;32573;51.290;6.926;2023-05-22T11:45:17;100028.59;;;20.79;100.00
46836;BME280;32573;51.290;6.926;2023-05-22T11:47:48;100030.19;;;20.89;100.00
46836;BME280;32573;51.290;6.926;2023-05-22T11:50:17;100022.06;;;21.00;100.00
46836;BME280;32573;51.290;6.926;2023-05-22T11:53:09;100024.47;;;21.14;100.00
46836;BME280;32573;51.290;6.926;2023-05-22T11:55:41;100023.38;;;21.25;100.00
46836;BME280;32573;51.290;6.926;2023-05-22T11:58:11;100026.69;;;21.37;100.00
46836;BME280;32573;51.290;6.926;2023-05-22T12:00:41;100023.03;;;21.47;100.00
46836;BME280;32573;51.290;6.926;2023-05-22T12:03:11;100024.69;;;21.51;100.00
46836;BME280;32573;51.290;6.926;2023-05-22T12:05:44;100023.75;;;21.55;100.00
46836;BME280;32573;51.290;6.926;2023-05-22T12:08:16;100016.50;;;21.62;100.00
46836;BME280;32573;51.290;6.926;2023-05-22T12:10:46;100015.44;;;21.70;100.00
46836;BME280;32573;51.290;6.926;2023-05-22T12:13:23;100017.00;;;21.81;100.00
46836;BME280;32573;51.290;6.926;2023-05-22T12:15:56;100009.72;;;21.89;100.00
46836;BME280;32573;51.290;6.926;2023-05-22T12:18:27;100003.41;;;21.94;100.00
46836;BME280;32573;51.290;6.926;2023-05-22T12:21:04;100005.03;;;22.02;100.00
46836;BME280;32573;51.290;6.926;2023-05-22T12:23:34;99995.06;;;22.10;100.00
46836;BME280;32573;51.290;6.926;2023-05-22T12:26:08;99997.56;;;22.17;100.00
46836;BME280;32573;51.290;6.926;2023-05-22T12:28:37;100008.00;;;22.30;100.00
46836;BME280;32573;51.290;6.926;2023-05-22T12:31:06;99998.97;;;22.35;100.00
46836;BME280;32573;51.290;6.926;2023-05-22T12:33:38;99991.69;;;22.42;100.00
46836;BME280;32573;51.290;6.926;2023-05-22T12:36:06;100001.25;;;22.52;100.00
46836;BME280;32573;51.290;6.926;2023-05-22T12:38:37;100000.06;;;22.64;100.00
46836;BME280;32573;51.290;6.926;2023-05-22T12:41:06;99996.22;;;22.76;100.00
46836;BME280;32573;51.290;6.926;2023-05-22T12:43:35;99995.06;;;22.86;100.00
46836;BME280;32573;51.290;6.926;2023-05-22T12:46:03;99987.69;;;22.96;100.00
46836;BME280;32573;51.290;6.926;2023-05-22T12:48:32;99986.53;;;23.08;100.00
46836;BME280;32573;51.290;6.926;2023-05-22T12:51:00;99992.41;;;23.22;100.00
46836;BME280;32573;51.290;6.926;2023-05-22T12:53:29;99985.13;;;23.27;100.00
46836;BME280;32573;51.290;6.926;2023-05-22T12:55:59;99992.84;;;23.38;100.00
46836;BME280;32573;51.290;6.926;2023-05-22T12:58:28;99979.28;;;23.45;100.00
46836;BME280;32573;51.290;6.926;2023-05-22T13:00:57;99980.84;;;23.53;100.00
46836;BME280;32573;51.290;6.926;2023-05-22T13:03:25;99984.91;;;23.66;100.00
46836;BME280;32573;51.290;6.926;2023-05-22T13:05:54;99984.03;;;23.67;100.00
46836;BME280;32573;51.290;6.926;2023-05-22T13:08:22;99981.19;;;23.73;100.00
46836;BME280;32573;51.290;6.926;2023-05-22T13:10:51;99984.53;;;23.81;100.00